sensor_id;sensor_type;location;lat;lon;timestamp;P1;durP1;ratioP1;P2;durP2;ratioP2
64174;SDS011;50469;50.438;-119.202;2023-07-31T00:00:45;8.75;;;5.75;;
64174;SDS011;50469;50.438;-119.202;2023-07-31T00:03:15;6.65;;;5.15;;
64174;SDS011;50469;50.438;-119.202;2023-07-31T00:05:43;7.53;;;5.68;;
64174;SDS011;50469;50.438;-119.202;2023-07-31T00:08:11;12.07;;;6.45;;
64174;SDS011;50469;50.438;-119.202;2023-07-31T00:10:39;7.60;;;5.95;;
64174;SDS011;50469;50.438;-119.202;2023-07-31T00:13:10;10.63;;;5.85;;
64174;SDS011;50469;50.438;-119.202;2023-07-31T00:15:42;8.35;;;6.20;;
64174;SDS011;50469;50.438;-119.202;2023-07-31T00:18:13;8.93;;;5.65;;
64174;SDS011;50469;50.438;-119.202;2023-07-31T00:20:41;8.43;;;5.90;;
64174;SDS011;50469;50.438;-119.202;2023-07-31T00:23:09;13.50;;;5.65;;
64174;SDS011;50469;50.438;-119.202;2023-07-31T00:25:37;9.15;;;6.30;;
64174;SDS011;50469;50.438;-119.202;2023-07-31T00:28:08;7.03;;;5.82;;
64174;SDS011;50469;50.438;-119.202;2023-07-31T00:30:38;10.93;;;6.90;;
64174;SDS011;50469;50.438;-119.202;2023-07-31T00:33:09;14.07;;;6.30;;
64174;SDS011;50469;50.438;-119.202;2023-07-31T00:35:38;8.23;;;6.57;;
64174;SDS011;50469;50.438;-119.202;2023-07-31T00:38:06;9.02;;;5.82;;
64174;SDS011;50469;50.438;-119.202;2023-07-31T00:40:36;9.50;;;5.80;;
64174;SDS011;50469;50.438;-119.202;2023-07-31T00:43:04;7.35;;;5.65;;
64174;SDS011;50469;50.438;-119.202;2023-07-31T00:45:35;7.72;;;6.10;;
64174;SDS011;50469;50.438;-119.202;2023-07-31T00:48:04;10.88;;;6.15;;
64174;SDS011;50469;50.438;-119.202;2023-07-31T00:50:33;7.55;;;5.65;;
64174;SDS011;50469;50.438;-119.202;2023-07-31T00:53:04;8.13;;;6.47;;
64174;SDS011;50469;50.438;-119.202;2023-07-31T00:55:32;9.02;;;5.53;;
64174;SDS011;50469;50.438;-119.202;2023-07-31T00:58:01;8.43;;;6.10;;
64174;SDS011;50469;50.438;-119.202;2023-07-31T01:00:29;7.70;;;6.45;;
64174;SDS011;50469;50.438;-119.202;2023-07-31T01:03:00;12.90;;;6.20;;
64174;SDS011;50469;50.438;-119.202;2023-07-31T01:05:36;9.30;;;6.53;;
64174;SDS011;50469;50.438;-119.202;2023-07-31T01:11:17;7.70;;;5.70;;
64174;SDS011;50469;50.438;-119.202;2023-07-31T01:13:47;8.73;;;5.82;;
64174;SDS011;50469;50.438;-119.202;2023-07-31T01:16:18;6.82;;;6.07;;
64174;SDS011;50469;50.438;-119.202;2023-07-31T01:18:46;26.25;;;5.63;;
64174;SDS011;50469;50.438;-119.202;2023-07-31T01:26:33;12.98;;;5.88;;
64174;SDS011;50469;50.438;-119.202;2023-07-31T01:31:53;14.20;;;5.55;;
64174;SDS011;50469;50.438;-119.202;2023-07-31T01:34:23;7.93;;;6.13;;
64174;SDS011;50469;50.438;-119.202;2023-07-31T01:36:53;7.15;;;5.78;;
64174;SDS011;50469;50.438;-119.202;2023-07-31T01:39:25;8.63;;;5.75;;
64174;SDS011;50469;50.438;-119.202;2023-07-31T01:41:54;8.73;;;5.90;;
64174;SDS011;50469;50.438;-119.202;2023-07-31T01:44:22;12.25;;;5.72;;
64174;SDS011;50469;50.438;-119.202;2023-07-31T01:46:52;17.27;;;6.05;;
64174;SDS011;50469;50.438;-119.202;2023-07-31T01:49:23;18.30;;;6.20;;
64174;SDS011;50469;50.438;-119.202;2023-07-31T01:51:51;10.75;;;5.68;;
64174;SDS011;50469;50.438;-119.202;2023-07-31T01:54:19;10.50;;;5.20;;
64174;SDS011;50469;50.438;-119.202;2023-07-31T01:56:47;10.50;;;5.80;;
64174;SDS011;50469;50.438;-119.202;2023-07-31T01:59:15;7.53;;;5.63;;
64174;SDS011;50469;50.438;-119.202;2023-07-31T02:01:46;7.70;;;5.28;;
64174;SDS011;50469;50.438;-119.202;2023-07-31T02:04:15;8.95;;;5.28;;
64174;SDS011;50469;50.438;-119.202;2023-07-31T02:06:43;8.23;;;5.38;;
64174;SDS011;50469;50.438;-119.202;2023-07-31T02:09:11;8.05;;;5.18;;
64174;SDS011;50469;50.438;-119.202;2023-07-31T02:11:39;7.10;;;4.75;;
64174;SDS011;50469;50.438;-119.202;2023-07-31T02:14:10;8.23;;;5.30;;
64174;SDS011;50469;50.438;-119.202;2023-07-31T02:16:38;7.82;;;4.72;;
64174;SDS011;50469;50.438;-119.202;2023-07-31T02:19:10;6.30;;;4.28;;
64174;SDS011;50469;50.438;-119.202;2023-07-31T02:21:38;6.32;;;4.47;;
64174;SDS011;50469;50.438;-119.202;2023-07-31T02:24:06;6.20;;;4.65;;
64174;SDS011;50469;50.438;-119.202;2023-07-31T02:26:36;10.15;;;5.68;;
64174;SDS011;50469;50.438;-119.202;2023-07-31T02:29:05;6.20;;;4.63;;
64174;SDS011;50469;50.438;-119.202;2023-07-31T02:31:36;7.07;;;4.47;;
64174;SDS011;50469;50.438;-119.202;2023-07-31T02:34:06;6.97;;;4.93;;
64174;SDS011;50469;50.438;-119.202;2023-07-31T02:36:37;8.38;;;4.35;;
64174;SDS011;50469;50.438;-119.202;2023-07-31T02:39:05;6.85;;;3.97;;
64174;SDS011;50469;50.438;-119.202;2023-07-31T02:41:36;12.90;;;4.30;;
64174;SDS011;50469;50.438;-119.202;2023-07-31T02:44:04;11.57;;;4.70;;
64174;SDS011;50469;50.438;-119.202;2023-07-31T02:46:35;6.55;;;4.35;;
64174;SDS011;50469;50.438;-119.202;2023-07-31T02:49:06;7.32;;;4.22;;
64174;SDS011;50469;50.438;-119.202;2023-07-31T02:51:34;14.73;;;4.97;;
64174;SDS011;50469;50.438;-119.202;2023-07-31T02:54:05;8.77;;;4.70;;
64174;SDS011;50469;50.438;-119.202;2023-07-31T02:56:33;8.43;;;4.70;;
64174;SDS011;50469;50.438;-119.202;2023-07-31T02:59:01;13.35;;;4.80;;
64174;SDS011;50469;50.438;-119.202;2023-07-31T03:01:33;12.27;;;5.03;;
64174;SDS011;50469;50.438;-119.202;2023-07-31T03:04:01;14.27;;;5.50;;
64174;SDS011;50469;50.438;-119.202;2023-07-31T03:06:30;8.32;;;4.65;;
64174;SDS011;50469;50.438;-119.202;2023-07-31T03:09:01;9.55;;;4.70;;
64174;SDS011;50469;50.438;-119.202;2023-07-31T03:11:29;18.80;;;5.35;;
64174;SDS011;50469;50.438;-119.202;2023-07-31T03:13:57;8.23;;;4.90;;
64174;SDS011;50469;50.438;-119.202;2023-07-31T03:16:27;7.05;;;4.55;;
64174;SDS011;50469;50.438;-119.202;2023-07-31T03:18:55;16.42;;;5.40;;
64174;SDS011;50469;50.438;-119.202;2023-07-31T03:21:23;9.77;;;4.95;;
64174;SDS011;50469;50.438;-119.202;2023-07-31T03:23:54;8.50;;;4.72;;
64174;SDS011;50469;50.438;-119.202;2023-07-31T03:26:22;11.90;;;4.60;;
64174;SDS011;50469;50.438;-119.202;2023-07-31T03:28:53;9.70;;;4.82;;
64174;SDS011;50469;50.438;-119.202;2023-07-31T03:31:21;9.80;;;4.80;;
64174;SDS011;50469;50.438;-119.202;2023-07-31T03:33:51;14.30;;;5.28;;
64174;SDS011;50469;50.438;-119.202;2023-07-31T03:36:22;16.05;;;5.25;;
64174;SDS011;50469;50.438;-119.202;2023-07-31T03:38:51;7.53;;;5.03;;
64174;SDS011;50469;50.438;-119.202;2023-07-31T03:41:19;13.35;;;4.45;;
64174;SDS011;50469;50.438;-119.202;2023-07-31T03:43:49;12.05;;;4.60;;
64174;SDS011;50469;50.438;-119.202;2023-07-31T03:46:18;7.78;;;4.57;;
64174;SDS011;50469;50.438;-119.202;2023-07-31T03:48:51;10.60;;;4.28;;
64174;SDS011;50469;50.438;-119.202;2023-07-31T03:51:20;7.57;;;4.25;;
64174;SDS011;50469;50.438;-119.202;2023-07-31T03:53:50;7.85;;;4.35;;
64174;SDS011;50469;50.438;-119.202;2023-07-31T03:56:18;11.23;;;4.68;;
64174;SDS011;50469;50.438;-119.202;2023-07-31T03:58:46;10.48;;;4.78;;
64174;SDS011;50469;50.438;-119.202;2023-07-31T04:01:17;10.73;;;5.00;;
64174;SDS011;50469;50.438;-119.202;2023-07-31T04:03:45;7.47;;;4.57;;
64174;SDS011;50469;50.438;-119.202;2023-07-31T04:06:13;12.38;;;4.57;;
64174;SDS011;50469;50.438;-119.202;2023-07-31T04:08:42;8.32;;;5.22;;
64174;SDS011;50469;50.438;-119.202;2023-07-31T04:11:10;6.93;;;4.40;;
64174;SDS011;50469;50.438;-119.202;2023-07-31T04:13:38;9.30;;;4.82;;
64174;SDS011;50469;50.438;-119.202;2023-07-31T04:16:06;5.82;;;4.00;;
64174;SDS011;50469;50.438;-119.202;2023-07-31T04:18:35;7.93;;;4.05;;
64174;SDS011;50469;50.438;-119.202;2023-07-31T04:21:03;6.38;;;4.45;;
64174;SDS011;50469;50.438;-119.202;2023-07-31T04:23:31;7.57;;;4.05;;
64174;SDS011;50469;50.438;-119.202;2023-07-31T04:25:59;6.80;;;4.13;;
64174;SDS011;50469;50.438;-119.202;2023-07-31T04:28:27;6.05;;;4.20;;
64174;SDS011;50469;50.438;-119.202;2023-07-31T04:30:57;5.88;;;4.57;;
64174;SDS011;50469;50.438;-119.202;2023-07-31T04:33:28;17.20;;;4.05;;
64174;SDS011;50469;50.438;-119.202;2023-07-31T04:35:56;9.70;;;4.35;;
64174;SDS011;50469;50.438;-119.202;2023-07-31T04:38:28;11.88;;;4.30;;
64174;SDS011;50469;50.438;-119.202;2023-07-31T04:40:56;10.18;;;3.85;;
64174;SDS011;50469;50.438;-119.202;2023-07-31T04:43:24;8.05;;;4.05;;
64174;SDS011;50469;50.438;-119.202;2023-07-31T04:45:52;8.45;;;3.95;;
64174;SDS011;50469;50.438;-119.202;2023-07-31T04:48:22;11.07;;;4.53;;
64174;SDS011;50469;50.438;-119.202;2023-07-31T04:50:50;7.60;;;4.40;;
64174;SDS011;50469;50.438;-119.202;2023-07-31T04:53:19;6.93;;;4.25;;
64174;SDS011;50469;50.438;-119.202;2023-07-31T04:55:52;5.72;;;4.05;;
64174;SDS011;50469;50.438;-119.202;2023-07-31T04:58:23;7.93;;;3.60;;
64174;SDS011;50469;50.438;-119.202;2023-07-31T05:00:51;8.25;;;4.35;;
64174;SDS011;50469;50.438;-119.202;2023-07-31T05:03:21;10.15;;;4.30;;
64174;SDS011;50469;50.438;-119.202;2023-07-31T05:05:52;5.78;;;4.38;;
64174;SDS011;50469;50.438;-119.202;2023-07-31T05:08:20;11.50;;;4.15;;
64174;SDS011;50469;50.438;-119.202;2023-07-31T05:10:51;5.63;;;4.00;;
64174;SDS011;50469;50.438;-119.202;2023-07-31T05:13:21;5.85;;;4.13;;
64174;SDS011;50469;50.438;-119.202;2023-07-31T05:15:49;8.32;;;4.90;;
64174;SDS011;50469;50.438;-119.202;2023-07-31T05:18:17;9.57;;;4.40;;
64174;SDS011;50469;50.438;-119.202;2023-07-31T05:20:45;6.93;;;4.72;;
64174;SDS011;50469;50.438;-119.202;2023-07-31T05:23:13;9.70;;;4.40;;
64174;SDS011;50469;50.438;-119.202;2023-07-31T05:25:44;10.25;;;4.35;;
64174;SDS011;50469;50.438;-119.202;2023-07-31T05:28:12;6.88;;;4.65;;
64174;SDS011;50469;50.438;-119.202;2023-07-31T05:30:40;17.50;;;4.30;;
64174;SDS011;50469;50.438;-119.202;2023-07-31T05:33:08;12.70;;;4.75;;
64174;SDS011;50469;50.438;-119.202;2023-07-31T05:35:40;15.68;;;4.57;;
64174;SDS011;50469;50.438;-119.202;2023-07-31T05:38:08;9.32;;;4.68;;
64174;SDS011;50469;50.438;-119.202;2023-07-31T05:40:39;7.47;;;4.65;;
64174;SDS011;50469;50.438;-119.202;2023-07-31T05:43:10;10.38;;;5.07;;
64174;SDS011;50469;50.438;-119.202;2023-07-31T05:45:41;7.82;;;4.20;;
64174;SDS011;50469;50.438;-119.202;2023-07-31T05:48:10;6.32;;;3.72;;
64174;SDS011;50469;50.438;-119.202;2023-07-31T05:50:38;6.68;;;4.32;;
64174;SDS011;50469;50.438;-119.202;2023-07-31T05:53:08;9.85;;;4.97;;
64174;SDS011;50469;50.438;-119.202;2023-07-31T05:55:36;6.60;;;4.28;;
64174;SDS011;50469;50.438;-119.202;2023-07-31T05:58:07;6.50;;;4.18;;
64174;SDS011;50469;50.438;-119.202;2023-07-31T06:00:35;6.28;;;4.15;;
64174;SDS011;50469;50.438;-119.202;2023-07-31T06:03:03;7.43;;;4.75;;
64174;SDS011;50469;50.438;-119.202;2023-07-31T06:05:37;12.07;;;4.30;;
64174;SDS011;50469;50.438;-119.202;2023-07-31T06:08:05;6.60;;;4.15;;
64174;SDS011;50469;50.438;-119.202;2023-07-31T06:10:36;10.45;;;3.80;;
64174;SDS011;50469;50.438;-119.202;2023-07-31T06:13:04;8.65;;;4.47;;
64174;SDS011;50469;50.438;-119.202;2023-07-31T06:15:32;9.60;;;3.90;;
64174;SDS011;50469;50.438;-119.202;2023-07-31T06:18:02;6.53;;;3.75;;
64174;SDS011;50469;50.438;-119.202;2023-07-31T06:20:31;7.25;;;3.72;;
64174;SDS011;50469;50.438;-119.202;2023-07-31T06:22:59;9.13;;;4.40;;
64174;SDS011;50469;50.438;-119.202;2023-07-31T06:25:30;7.32;;;4.20;;
64174;SDS011;50469;50.438;-119.202;2023-07-31T06:27:58;8.32;;;4.28;;
64174;SDS011;50469;50.438;-119.202;2023-07-31T06:30:26;12.00;;;4.60;;
64174;SDS011;50469;50.438;-119.202;2023-07-31T06:32:54;9.98;;;4.53;;
64174;SDS011;50469;50.438;-119.202;2023-07-31T06:35:25;11.43;;;4.97;;
64174;SDS011;50469;50.438;-119.202;2023-07-31T06:37:58;10.70;;;3.90;;
64174;SDS011;50469;50.438;-119.202;2023-07-31T06:40:29;10.63;;;4.45;;
64174;SDS011;50469;50.438;-119.202;2023-07-31T06:43:00;9.25;;;4.20;;
64174;SDS011;50469;50.438;-119.202;2023-07-31T06:45:29;10.60;;;4.40;;
64174;SDS011;50469;50.438;-119.202;2023-07-31T06:48:03;9.38;;;4.43;;
64174;SDS011;50469;50.438;-119.202;2023-07-31T06:50:31;11.52;;;4.20;;
64174;SDS011;50469;50.438;-119.202;2023-07-31T06:52:59;13.10;;;4.82;;
64174;SDS011;50469;50.438;-119.202;2023-07-31T06:55:30;9.35;;;4.32;;
64174;SDS011;50469;50.438;-119.202;2023-07-31T06:58:00;7.35;;;4.28;;
64174;SDS011;50469;50.438;-119.202;2023-07-31T07:00:29;10.38;;;5.65;;
64174;SDS011;50469;50.438;-119.202;2023-07-31T07:02:57;16.13;;;4.50;;
64174;SDS011;50469;50.438;-119.202;2023-07-31T07:05:28;8.55;;;4.35;;
64174;SDS011;50469;50.438;-119.202;2023-07-31T07:07:56;6.35;;;4.32;;
64174;SDS011;50469;50.438;-119.202;2023-07-31T07:10:24;7.20;;;5.15;;
64174;SDS011;50469;50.438;-119.202;2023-07-31T07:12:53;8.88;;;4.47;;
64174;SDS011;50469;50.438;-119.202;2023-07-31T07:15:23;12.25;;;4.57;;
64174;SDS011;50469;50.438;-119.202;2023-07-31T07:17:51;6.32;;;4.45;;
64174;SDS011;50469;50.438;-119.202;2023-07-31T07:20:21;9.02;;;4.85;;
64174;SDS011;50469;50.438;-119.202;2023-07-31T07:22:49;9.00;;;4.30;;
64174;SDS011;50469;50.438;-119.202;2023-07-31T07:25:17;7.75;;;4.13;;
64174;SDS011;50469;50.438;-119.202;2023-07-31T07:27:48;8.68;;;4.70;;
64174;SDS011;50469;50.438;-119.202;2023-07-31T07:30:16;9.43;;;4.32;;
64174;SDS011;50469;50.438;-119.202;2023-07-31T07:32:44;7.32;;;4.10;;
64174;SDS011;50469;50.438;-119.202;2023-07-31T07:35:12;8.82;;;4.65;;
64174;SDS011;50469;50.438;-119.202;2023-07-31T07:37:44;9.30;;;4.15;;
64174;SDS011;50469;50.438;-119.202;2023-07-31T07:40:12;6.43;;;3.90;;
64174;SDS011;50469;50.438;-119.202;2023-07-31T07:42:40;8.65;;;4.07;;
64174;SDS011;50469;50.438;-119.202;2023-07-31T07:45:09;7.65;;;4.18;;
64174;SDS011;50469;50.438;-119.202;2023-07-31T07:47:37;6.85;;;4.20;;
64174;SDS011;50469;50.438;-119.202;2023-07-31T07:50:08;14.30;;;4.68;;
64174;SDS011;50469;50.438;-119.202;2023-07-31T07:52:39;8.93;;;4.75;;
64174;SDS011;50469;50.438;-119.202;2023-07-31T07:55:07;10.30;;;4.32;;
64174;SDS011;50469;50.438;-119.202;2023-07-31T07:57:38;8.82;;;5.05;;
64174;SDS011;50469;50.438;-119.202;2023-07-31T08:00:07;7.05;;;4.25;;
64174;SDS011;50469;50.438;-119.202;2023-07-31T08:02:39;5.53;;;3.88;;
64174;SDS011;50469;50.438;-119.202;2023-07-31T08:05:08;7.00;;;4.18;;
64174;SDS011;50469;50.438;-119.202;2023-07-31T08:07:36;6.53;;;4.10;;
64174;SDS011;50469;50.438;-119.202;2023-07-31T08:10:04;10.35;;;4.47;;
64174;SDS011;50469;50.438;-119.202;2023-07-31T08:12:33;7.68;;;4.40;;
64174;SDS011;50469;50.438;-119.202;2023-07-31T08:15:02;12.27;;;4.70;;
64174;SDS011;50469;50.438;-119.202;2023-07-31T08:17:30;7.30;;;4.18;;
64174;SDS011;50469;50.438;-119.202;2023-07-31T08:20:00;8.30;;;4.22;;
64174;SDS011;50469;50.438;-119.202;2023-07-31T08:22:28;6.63;;;3.95;;
64174;SDS011;50469;50.438;-119.202;2023-07-31T08:24:56;6.75;;;3.65;;
64174;SDS011;50469;50.438;-119.202;2023-07-31T08:27:24;6.68;;;4.40;;
64174;SDS011;50469;50.438;-119.202;2023-07-31T08:29:54;6.07;;;3.80;;
64174;SDS011;50469;50.438;-119.202;2023-07-31T08:32:23;10.15;;;4.07;;
64174;SDS011;50469;50.438;-119.202;2023-07-31T08:34:51;6.65;;;4.13;;
64174;SDS011;50469;50.438;-119.202;2023-07-31T08:37:21;6.60;;;4.47;;
64174;SDS011;50469;50.438;-119.202;2023-07-31T08:39:53;6.03;;;3.80;;
64174;SDS011;50469;50.438;-119.202;2023-07-31T08:42:24;8.00;;;3.80;;
64174;SDS011;50469;50.438;-119.202;2023-07-31T08:44:54;10.07;;;4.90;;
64174;SDS011;50469;50.438;-119.202;2023-07-31T08:47:23;6.68;;;4.35;;
64174;SDS011;50469;50.438;-119.202;2023-07-31T08:49:53;13.73;;;4.63;;
64174;SDS011;50469;50.438;-119.202;2023-07-31T08:52:22;11.68;;;4.18;;
64174;SDS011;50469;50.438;-119.202;2023-07-31T08:54:53;9.30;;;4.50;;
64174;SDS011;50469;50.438;-119.202;2023-07-31T08:57:21;8.25;;;3.90;;
64174;SDS011;50469;50.438;-119.202;2023-07-31T08:59:50;5.82;;;3.85;;
64174;SDS011;50469;50.438;-119.202;2023-07-31T09:02:21;7.80;;;3.95;;
64174;SDS011;50469;50.438;-119.202;2023-07-31T09:04:51;6.82;;;3.65;;
64174;SDS011;50469;50.438;-119.202;2023-07-31T09:07:19;6.20;;;4.25;;
64174;SDS011;50469;50.438;-119.202;2023-07-31T09:09:52;8.82;;;4.53;;
64174;SDS011;50469;50.438;-119.202;2023-07-31T09:12:20;6.65;;;4.15;;
64174;SDS011;50469;50.438;-119.202;2023-07-31T09:14:51;9.95;;;4.53;;
64174;SDS011;50469;50.438;-119.202;2023-07-31T09:17:34;8.38;;;4.72;;
64174;SDS011;50469;50.438;-119.202;2023-07-31T09:22:45;8.15;;;4.53;;
64174;SDS011;50469;50.438;-119.202;2023-07-31T09:25:15;13.50;;;4.13;;
64174;SDS011;50469;50.438;-119.202;2023-07-31T09:27:59;7.50;;;4.40;;
64174;SDS011;50469;50.438;-119.202;2023-07-31T09:30:30;7.97;;;4.07;;
64174;SDS011;50469;50.438;-119.202;2023-07-31T09:33:02;7.55;;;4.53;;
64174;SDS011;50469;50.438;-119.202;2023-07-31T09:35:32;9.65;;;4.40;;
64174;SDS011;50469;50.438;-119.202;2023-07-31T09:38:08;7.85;;;4.20;;
64174;SDS011;50469;50.438;-119.202;2023-07-31T09:40:41;6.45;;;4.60;;
64174;SDS011;50469;50.438;-119.202;2023-07-31T09:43:11;9.55;;;4.88;;
64174;SDS011;50469;50.438;-119.202;2023-07-31T09:45:41;8.23;;;4.03;;
64174;SDS011;50469;50.438;-119.202;2023-07-31T09:48:19;6.43;;;3.75;;
64174;SDS011;50469;50.438;-119.202;2023-07-31T09:50:48;9.80;;;4.57;;
64174;SDS011;50469;50.438;-119.202;2023-07-31T09:53:19;6.47;;;4.25;;
64174;SDS011;50469;50.438;-119.202;2023-07-31T09:55:47;6.90;;;3.90;;
64174;SDS011;50469;50.438;-119.202;2023-07-31T09:58:15;6.03;;;4.00;;
64174;SDS011;50469;50.438;-119.202;2023-07-31T10:00:49;5.75;;;3.78;;
64174;SDS011;50469;50.438;-119.202;2023-07-31T10:03:19;9.15;;;4.10;;
64174;SDS011;50469;50.438;-119.202;2023-07-31T10:05:52;6.30;;;4.15;;
64174;SDS011;50469;50.438;-119.202;2023-07-31T10:08:23;9.68;;;4.75;;
64174;SDS011;50469;50.438;-119.202;2023-07-31T10:10:57;6.25;;;4.20;;
64174;SDS011;50469;50.438;-119.202;2023-07-31T10:13:33;7.40;;;4.43;;
64174;SDS011;50469;50.438;-119.202;2023-07-31T10:16:01;6.97;;;4.00;;
64174;SDS011;50469;50.438;-119.202;2023-07-31T10:18:30;5.65;;;3.80;;
64174;SDS011;50469;50.438;-119.202;2023-07-31T10:20:59;8.00;;;4.70;;
64174;SDS011;50469;50.438;-119.202;2023-07-31T10:23:27;11.15;;;4.75;;
64174;SDS011;50469;50.438;-119.202;2023-07-31T10:25:55;7.05;;;4.20;;
64174;SDS011;50469;50.438;-119.202;2023-07-31T10:28:26;9.38;;;4.85;;
64174;SDS011;50469;50.438;-119.202;2023-07-31T10:30:54;6.50;;;4.50;;
64174;SDS011;50469;50.438;-119.202;2023-07-31T10:33:25;6.13;;;4.68;;
64174;SDS011;50469;50.438;-119.202;2023-07-31T10:36:14;6.82;;;4.68;;
64174;SDS011;50469;50.438;-119.202;2023-07-31T10:38:48;8.40;;;4.80;;
64174;SDS011;50469;50.438;-119.202;2023-07-31T10:41:17;11.38;;;4.85;;
64174;SDS011;50469;50.438;-119.202;2023-07-31T10:43:56;11.98;;;4.82;;
64174;SDS011;50469;50.438;-119.202;2023-07-31T10:46:29;7.82;;;4.65;;
64174;SDS011;50469;50.438;-119.202;2023-07-31T10:49:01;15.15;;;4.65;;
64174;SDS011;50469;50.438;-119.202;2023-07-31T10:51:33;8.57;;;4.95;;
64174;SDS011;50469;50.438;-119.202;2023-07-31T10:54:15;8.20;;;4.75;;
64174;SDS011;50469;50.438;-119.202;2023-07-31T10:56:47;9.40;;;5.72;;
64174;SDS011;50469;50.438;-119.202;2023-07-31T10:59:18;7.68;;;4.47;;
64174;SDS011;50469;50.438;-119.202;2023-07-31T11:01:55;10.18;;;4.97;;
64174;SDS011;50469;50.438;-119.202;2023-07-31T11:04:24;6.90;;;4.50;;
64174;SDS011;50469;50.438;-119.202;2023-07-31T11:06:58;7.68;;;4.70;;
64174;SDS011;50469;50.438;-119.202;2023-07-31T11:09:30;11.82;;;4.40;;
64174;SDS011;50469;50.438;-119.202;2023-07-31T11:12:02;10.18;;;4.47;;
64174;SDS011;50469;50.438;-119.202;2023-07-31T11:14:36;9.32;;;5.35;;
64174;SDS011;50469;50.438;-119.202;2023-07-31T11:17:07;12.18;;;6.32;;
64174;SDS011;50469;50.438;-119.202;2023-07-31T11:19:35;10.20;;;6.00;;
64174;SDS011;50469;50.438;-119.202;2023-07-31T11:22:05;8.80;;;5.50;;
64174;SDS011;50469;50.438;-119.202;2023-07-31T11:24:34;9.52;;;5.40;;
64174;SDS011;50469;50.438;-119.202;2023-07-31T11:27:07;9.90;;;5.55;;
64174;SDS011;50469;50.438;-119.202;2023-07-31T11:29:35;9.55;;;5.45;;
64174;SDS011;50469;50.438;-119.202;2023-07-31T11:32:03;9.85;;;5.50;;
64174;SDS011;50469;50.438;-119.202;2023-07-31T11:34:55;8.57;;;5.45;;
64174;SDS011;50469;50.438;-119.202;2023-07-31T11:37:38;9.63;;;6.03;;
64174;SDS011;50469;50.438;-119.202;2023-07-31T11:40:12;13.10;;;6.07;;
64174;SDS011;50469;50.438;-119.202;2023-07-31T11:42:45;11.65;;;5.30;;
64174;SDS011;50469;50.438;-119.202;2023-07-31T11:45:13;10.63;;;6.20;;
64174;SDS011;50469;50.438;-119.202;2023-07-31T11:47:44;10.32;;;5.38;;
64174;SDS011;50469;50.438;-119.202;2023-07-31T11:50:13;9.90;;;5.03;;
64174;SDS011;50469;50.438;-119.202;2023-07-31T11:52:42;9.15;;;5.40;;
64174;SDS011;50469;50.438;-119.202;2023-07-31T11:55:12;15.18;;;5.78;;
64174;SDS011;50469;50.438;-119.202;2023-07-31T11:57:41;12.10;;;4.93;;
64174;SDS011;50469;50.438;-119.202;2023-07-31T12:00:15;8.85;;;4.72;;
64174;SDS011;50469;50.438;-119.202;2023-07-31T12:02:44;8.20;;;5.40;;
64174;SDS011;50469;50.438;-119.202;2023-07-31T12:05:17;10.40;;;5.03;;
64174;SDS011;50469;50.438;-119.202;2023-07-31T12:07:54;8.02;;;5.30;;
64174;SDS011;50469;50.438;-119.202;2023-07-31T12:10:24;8.48;;;4.97;;
64174;SDS011;50469;50.438;-119.202;2023-07-31T12:15:41;8.05;;;5.07;;
64174;SDS011;50469;50.438;-119.202;2023-07-31T12:18:14;8.43;;;4.60;;
64174;SDS011;50469;50.438;-119.202;2023-07-31T12:20:46;8.98;;;4.50;;
64174;SDS011;50469;50.438;-119.202;2023-07-31T12:23:20;8.38;;;4.38;;
64174;SDS011;50469;50.438;-119.202;2023-07-31T12:25:54;10.30;;;5.22;;
64174;SDS011;50469;50.438;-119.202;2023-07-31T12:28:35;19.88;;;4.35;;
64174;SDS011;50469;50.438;-119.202;2023-07-31T12:31:17;6.57;;;4.40;;
64174;SDS011;50469;50.438;-119.202;2023-07-31T12:33:52;7.22;;;4.55;;
64174;SDS011;50469;50.438;-119.202;2023-07-31T12:36:20;7.53;;;4.32;;
64174;SDS011;50469;50.438;-119.202;2023-07-31T12:38:54;7.43;;;4.43;;
64174;SDS011;50469;50.438;-119.202;2023-07-31T12:41:22;10.05;;;4.60;;
64174;SDS011;50469;50.438;-119.202;2023-07-31T12:43:50;8.88;;;4.80;;
64174;SDS011;50469;50.438;-119.202;2023-07-31T12:46:21;8.05;;;4.78;;
64174;SDS011;50469;50.438;-119.202;2023-07-31T12:48:50;6.68;;;4.57;;
64174;SDS011;50469;50.438;-119.202;2023-07-31T12:51:18;6.30;;;4.75;;
64174;SDS011;50469;50.438;-119.202;2023-07-31T12:53:49;10.25;;;4.63;;
64174;SDS011;50469;50.438;-119.202;2023-07-31T12:56:17;12.27;;;4.97;;
64174;SDS011;50469;50.438;-119.202;2023-07-31T12:58:45;7.00;;;4.30;;
64174;SDS011;50469;50.438;-119.202;2023-07-31T13:01:13;8.85;;;5.38;;
64174;SDS011;50469;50.438;-119.202;2023-07-31T13:03:41;8.80;;;4.95;;
64174;SDS011;50469;50.438;-119.202;2023-07-31T13:06:14;10.57;;;4.72;;
64174;SDS011;50469;50.438;-119.202;2023-07-31T13:08:42;7.25;;;4.82;;
64174;SDS011;50469;50.438;-119.202;2023-07-31T13:11:12;11.00;;;5.10;;
64174;SDS011;50469;50.438;-119.202;2023-07-31T13:13:40;11.13;;;4.63;;
64174;SDS011;50469;50.438;-119.202;2023-07-31T13:16:08;8.23;;;4.95;;
64174;SDS011;50469;50.438;-119.202;2023-07-31T13:18:39;8.77;;;5.10;;
64174;SDS011;50469;50.438;-119.202;2023-07-31T13:21:08;11.82;;;5.13;;
64174;SDS011;50469;50.438;-119.202;2023-07-31T13:23:36;10.38;;;4.75;;
64174;SDS011;50469;50.438;-119.202;2023-07-31T13:26:06;6.47;;;4.68;;
64174;SDS011;50469;50.438;-119.202;2023-07-31T13:28:34;7.18;;;4.78;;
64174;SDS011;50469;50.438;-119.202;2023-07-31T13:31:02;10.27;;;4.72;;
64174;SDS011;50469;50.438;-119.202;2023-07-31T13:33:30;7.53;;;4.32;;
64174;SDS011;50469;50.438;-119.202;2023-07-31T13:36:04;5.50;;;4.35;;
64174;SDS011;50469;50.438;-119.202;2023-07-31T13:38:32;6.50;;;4.47;;
64174;SDS011;50469;50.438;-119.202;2023-07-31T13:41:03;6.18;;;4.43;;
64174;SDS011;50469;50.438;-119.202;2023-07-31T13:43:31;10.55;;;4.40;;
64174;SDS011;50469;50.438;-119.202;2023-07-31T13:46:00;10.77;;;4.25;;
64174;SDS011;50469;50.438;-119.202;2023-07-31T13:48:30;6.60;;;4.63;;
64174;SDS011;50469;50.438;-119.202;2023-07-31T13:51:02;9.68;;;4.03;;
64174;SDS011;50469;50.438;-119.202;2023-07-31T13:53:32;10.55;;;4.57;;
64174;SDS011;50469;50.438;-119.202;2023-07-31T13:56:00;7.97;;;4.40;;
64174;SDS011;50469;50.438;-119.202;2023-07-31T13:58:29;6.20;;;4.40;;
64174;SDS011;50469;50.438;-119.202;2023-07-31T14:00:59;6.30;;;4.45;;
64174;SDS011;50469;50.438;-119.202;2023-07-31T14:03:28;7.05;;;4.13;;
64174;SDS011;50469;50.438;-119.202;2023-07-31T14:05:56;6.57;;;4.30;;
64174;SDS011;50469;50.438;-119.202;2023-07-31T14:08:24;6.25;;;4.53;;
64174;SDS011;50469;50.438;-119.202;2023-07-31T14:10:55;7.30;;;4.05;;
64174;SDS011;50469;50.438;-119.202;2023-07-31T14:13:23;7.53;;;3.92;;
64174;SDS011;50469;50.438;-119.202;2023-07-31T14:15:51;7.63;;;4.20;;
64174;SDS011;50469;50.438;-119.202;2023-07-31T14:18:19;6.93;;;4.55;;
64174;SDS011;50469;50.438;-119.202;2023-07-31T14:20:47;14.80;;;4.95;;
64174;SDS011;50469;50.438;-119.202;2023-07-31T14:23:15;7.07;;;4.90;;
64174;SDS011;50469;50.438;-119.202;2023-07-31T14:25:44;7.45;;;4.90;;
64174;SDS011;50469;50.438;-119.202;2023-07-31T14:28:12;10.98;;;4.50;;
64174;SDS011;50469;50.438;-119.202;2023-07-31T14:30:40;10.75;;;5.07;;
64174;SDS011;50469;50.438;-119.202;2023-07-31T14:33:08;6.70;;;5.10;;
64174;SDS011;50469;50.438;-119.202;2023-07-31T14:35:36;22.58;;;5.03;;
64174;SDS011;50469;50.438;-119.202;2023-07-31T14:38:04;13.95;;;4.78;;